createdAt,value
2019-01-12T06:30:35.648Z,7.30
2019-01-12T06:33:04.619Z,7.57
2019-01-12T06:35:33.594Z,7.70
2019-01-12T06:38:02.574Z,6.30
2019-01-12T06:40:31.548Z,6.57
2019-01-12T06:43:00.539Z,6.90
2019-01-12T06:45:48.915Z,6.57
2019-01-12T06:48:17.922Z,5.97
2019-01-12T06:50:46.894Z,6.47
2019-01-12T06:53:15.886Z,5.67
2019-01-12T06:55:44.859Z,5.97
2019-01-12T06:58:13.836Z,5.30
2019-01-12T07:00:42.846Z,6.10
2019-01-12T07:03:11.834Z,5.20
2019-01-12T07:05:40.823Z,5.63
2019-01-12T07:08:09.806Z,6.40
2019-01-12T07:10:38.805Z,4.73
2019-01-12T07:13:07.772Z,5.20
2019-01-12T07:15:36.774Z,5.10
2019-01-12T07:18:08.974Z,5.20
2019-01-12T07:20:38.083Z,4.70
2019-01-12T07:23:07.162Z,4.97
2019-01-12T07:25:36.146Z,4.57
2019-01-12T07:28:05.126Z,5.03
2019-01-12T07:30:34.174Z,4.83
2019-01-12T07:33:03.171Z,4.30
2019-01-12T07:35:32.139Z,4.30
2019-01-12T07:38:01.111Z,3.60
2019-01-12T07:40:30.090Z,3.90
2019-01-12T07:42:59.082Z,3.77
2019-01-12T07:45:28.056Z,3.20
2019-01-12T07:47:57.018Z,3.17
2019-01-12T07:50:26.002Z,3.17
2019-01-12T07:52:55.018Z,3.70
2019-01-12T07:55:23.991Z,3.00
2019-01-12T07:57:52.977Z,2.50
2019-01-12T08:00:22.015Z,2.87
2019-01-12T08:02:51.360Z,2.50
2019-01-12T08:05:20.707Z,2.90
2019-01-12T08:07:49.674Z,2.50
2019-01-12T08:10:20.106Z,2.37
2019-01-12T08:12:49.081Z,2.20
2019-01-12T08:15:18.047Z,2.30
2019-01-12T08:17:47.087Z,2.17
2019-01-12T08:20:16.058Z,2.03
2019-01-12T08:22:45.106Z,2.30
2019-01-12T08:25:14.090Z,2.10
2019-01-12T08:27:43.058Z,2.30
2019-01-12T08:30:13.563Z,2.60
2019-01-12T08:32:42.607Z,2.37
2019-01-12T08:35:11.704Z,2.43
2019-01-12T08:37:40.708Z,2.43
2019-01-12T08:40:10.760Z,2.93
2019-01-12T08:42:39.733Z,3.00
2019-01-12T08:45:09.673Z,3.07
2019-01-12T08:47:38.642Z,3.00
2019-01-12T08:50:09.170Z,2.80
2019-01-12T08:52:38.138Z,3.43
2019-01-12T08:55:08.315Z,2.97
2019-01-12T08:57:37.508Z,3.57
2019-01-12T09:00:13.795Z,2.83
2019-01-12T09:02:42.758Z,2.90
2019-01-12T09:05:11.746Z,3.10
2019-01-12T09:07:40.726Z,3.10
2019-01-12T09:10:11.165Z,2.90
2019-01-12T09:12:40.134Z,2.83
2019-01-12T09:15:09.892Z,2.63
2019-01-12T09:17:38.943Z,2.80
2019-01-12T09:20:09.391Z,2.60
2019-01-12T09:22:39.789Z,2.70
2019-01-12T09:25:09.175Z,2.40
2019-01-12T09:27:38.146Z,2.30
2019-01-12T09:30:08.662Z,2.03
2019-01-12T09:32:37.634Z,2.00
2019-01-12T09:35:06.638Z,2.10
2019-01-12T09:37:35.749Z,2.47
2019-01-12T09:40:06.294Z,2.53
2019-01-12T09:42:35.277Z,2.60
2019-01-12T09:45:05.724Z,2.80
2019-01-12T09:47:34.774Z,3.00
2019-01-12T09:50:05.542Z,3.53
2019-01-12T09:52:34.612Z,3.33
2019-01-12T09:55:04.123Z,3.50
2019-01-12T09:57:33.111Z,3.37
2019-01-12T10:00:02.166Z,3.30
2019-01-12T10:02:31.164Z,3.30
2019-01-12T10:05:00.158Z,3.40
2019-01-12T10:07:29.177Z,3.80
2019-01-12T10:09:58.154Z,3.83
2019-01-12T10:12:27.127Z,3.40
2019-01-12T10:14:56.151Z,3.07
2019-01-12T10:17:25.137Z,3.10
2019-01-12T10:19:54.121Z,3.00
2019-01-12T10:22:28.556Z,2.93
2019-01-12T10:24:53.801Z,3.13
2019-01-12T10:27:22.767Z,3.23
2019-01-12T10:29:51.767Z,3.20
2019-01-12T10:32:20.730Z,3.00
2019-01-12T10:34:49.713Z,2.90
2019-01-12T10:37:19.310Z,3.50
2019-01-12T10:39:48.378Z,3.23
2019-01-12T10:42:17.346Z,3.20
2019-01-12T10:44:46.338Z,3.30
2019-01-12T10:47:15.318Z,3.10
2019-01-12T10:49:44.293Z,3.67
2019-01-12T10:52:13.262Z,4.03
2019-01-12T10:54:42.322Z,3.97
2019-01-12T10:57:11.295Z,3.80
2019-01-12T10:59:40.286Z,3.57
2019-01-12T11:02:09.323Z,3.60
2019-01-12T11:04:38.299Z,3.70
2019-01-12T11:07:08.911Z,4.20
2019-01-12T11:09:37.938Z,4.63
2019-01-12T11:12:06.946Z,4.83
2019-01-12T11:14:35.914Z,5.13
2019-01-12T11:17:04.878Z,5.30
2019-01-12T11:19:33.854Z,5.43
2019-01-12T11:22:02.833Z,5.50
2019-01-12T11:24:31.935Z,5.47
2019-01-12T11:27:00.904Z,5.70
2019-01-12T11:29:29.882Z,6.13
2019-01-12T11:31:58.868Z,6.30
2019-01-12T11:34:27.834Z,7.17
2019-01-12T11:36:56.815Z,7.17
2019-01-12T11:39:25.805Z,7.53
2019-01-12T11:41:54.794Z,7.60
2019-01-12T11:44:23.775Z,7.80
2019-01-12T11:46:52.750Z,7.70
2019-01-12T11:49:21.747Z,7.70
2019-01-12T11:51:53.215Z,8.50
2019-01-12T11:54:22.231Z,7.37
2019-01-12T11:56:51.230Z,7.67
2019-01-12T11:59:20.204Z,8.07
2019-01-12T12:01:49.250Z,7.27
2019-01-12T12:04:18.243Z,7.83
2019-01-12T12:06:47.218Z,8.20
2019-01-12T12:09:16.223Z,8.57
2019-01-12T12:11:45.240Z,7.87
2019-01-12T12:14:14.194Z,8.40
2019-01-12T12:16:43.198Z,8.53
2019-01-12T12:19:12.174Z,9.77
2019-01-12T12:21:41.151Z,10.43
2019-01-12T12:24:10.242Z,10.30
2019-01-12T12:26:39.378Z,9.67
2019-01-12T12:29:08.387Z,9.87
2019-01-12T12:31:37.392Z,10.63
2019-01-12T12:34:06.350Z,10.80
2019-01-12T12:36:35.601Z,11.23
2019-01-12T12:39:06.539Z,11.73
2019-01-12T12:41:35.564Z,10.83
2019-01-12T12:44:04.608Z,11.73
2019-01-12T12:46:33.690Z,10.60
2019-01-12T12:49:02.673Z,11.43
2019-01-12T12:51:32.286Z,10.77
2019-01-12T12:54:01.262Z,11.70
2019-01-12T12:56:30.539Z,11.73
2019-01-12T12:58:59.626Z,11.63
2019-01-12T13:01:28.699Z,10.47
2019-01-12T13:03:57.770Z,12.00
2019-01-12T13:06:26.752Z,12.00
2019-01-12T13:08:55.816Z,11.47
2019-01-12T13:11:24.815Z,11.90
2019-01-12T13:14:13.119Z,12.87
2019-01-12T14:10:45.444Z,11.30
2019-01-12T16:10:35.962Z,11.97
2019-01-12T16:13:04.942Z,12.40
2019-01-12T16:15:33.918Z,12.17
2019-01-12T16:18:02.937Z,12.50
2019-01-12T16:20:33.491Z,11.67
2019-01-12T16:23:02.462Z,12.10
2019-01-12T16:25:31.487Z,12.57
2019-01-12T16:28:00.462Z,11.67
2019-01-12T16:30:29.459Z,11.30
2019-01-12T16:32:58.443Z,11.30
2019-01-12T16:35:27.415Z,11.53
2019-01-12T16:37:56.414Z,11.70
2019-01-12T16:40:25.854Z,11.83
2019-01-12T16:42:54.826Z,10.77
2019-01-12T16:45:23.813Z,11.23
2019-01-12T16:47:52.783Z,12.40
2019-01-12T16:50:21.774Z,11.57
2019-01-12T16:52:50.771Z,12.27
2019-01-12T16:55:19.750Z,11.20
2019-01-12T16:57:48.742Z,11.43
2019-01-12T17:00:19.554Z,10.43
2019-01-12T17:02:48.534Z,10.43
2019-01-12T17:05:17.527Z,10.20
2019-01-12T17:07:47.120Z,10.30
2019-01-12T17:10:17.402Z,9.23
2019-01-12T17:12:46.557Z,9.27
2019-01-12T17:15:16.562Z,9.93
2019-01-12T17:17:45.570Z,9.87
2019-01-12T17:20:15.950Z,9.97
2019-01-12T17:22:45.207Z,8.50
2019-01-12T17:25:14.167Z,9.40
2019-01-12T17:27:43.138Z,9.53
2019-01-12T17:30:16.114Z,9.03
2019-01-12T17:32:45.170Z,8.47
2019-01-12T17:35:14.302Z,8.10
2019-01-12T17:37:43.488Z,7.63
2019-01-12T17:40:13.108Z,8.23
2019-01-12T17:42:42.095Z,8.07
2019-01-12T17:45:12.238Z,7.67
2019-01-12T17:47:41.206Z,6.83
2019-01-12T17:50:11.559Z,6.80
2019-01-12T17:52:40.534Z,7.43
2019-01-12T17:55:12.307Z,6.73
2019-01-12T17:57:41.468Z,6.83
2019-01-12T18:00:16.334Z,9.13
2019-01-12T18:02:45.298Z,6.80
2019-01-12T18:05:14.283Z,7.30
2019-01-12T18:07:43.251Z,6.20
2019-01-12T18:10:13.194Z,6.17
2019-01-12T18:12:42.235Z,6.03
2019-01-12T18:15:12.734Z,6.43
2019-01-12T18:17:41.694Z,6.00
2019-01-12T18:20:12.221Z,5.30
2019-01-12T18:22:41.246Z,5.97
2019-01-12T18:25:11.102Z,5.57
2019-01-12T18:27:40.078Z,5.63
2019-01-12T18:30:10.643Z,5.30
2019-01-12T18:32:39.610Z,5.03
2019-01-12T18:35:08.642Z,4.90
2019-01-12T18:37:37.698Z,5.07
2019-01-12T18:40:11.246Z,4.50
2019-01-12T18:42:40.230Z,4.90
2019-01-12T18:45:11.340Z,4.30
2019-01-12T18:47:40.398Z,4.70
2019-01-12T18:50:10.933Z,4.17
2019-01-12T18:52:39.919Z,4.80
2019-01-12T18:55:09.946Z,4.20
2019-01-12T18:57:38.923Z,4.47
2019-01-12T19:00:09.427Z,4.43
2019-01-12T19:02:38.400Z,4.80
2019-01-12T19:05:07.477Z,4.00
2019-01-12T19:07:36.439Z,4.40
2019-01-12T19:10:07.075Z,4.23
2019-01-12T19:12:36.050Z,5.50
2019-01-12T19:15:24.457Z,4.27
2019-01-12T19:17:53.447Z,4.17
2019-01-12T19:20:22.430Z,3.90
2019-01-12T19:22:51.413Z,4.27
2019-01-12T19:25:20.457Z,4.20
2019-01-12T19:27:49.423Z,3.83
2019-01-12T19:30:22.089Z,4.27
2019-01-12T19:32:51.219Z,4.00
2019-01-12T19:35:20.191Z,4.37
2019-01-12T19:37:49.227Z,4.00
2019-01-12T19:40:19.287Z,4.50
2019-01-12T19:42:48.315Z,4.23
2019-01-12T19:45:17.275Z,4.47
2019-01-12T19:47:46.254Z,4.50
2019-01-12T19:50:19.134Z,4.57
2019-01-12T19:52:48.099Z,4.37
2019-01-12T19:55:17.063Z,4.37
2019-01-12T19:57:46.064Z,4.43
2019-01-12T20:00:22.454Z,4.13
2019-01-12T20:02:51.454Z,4.73
2019-01-12T20:05:20.437Z,4.40
2019-01-12T20:07:49.471Z,5.03
2019-01-12T20:10:18.713Z,6.83
2019-01-12T20:12:47.694Z,4.80
2019-01-12T20:15:17.946Z,5.43
2019-01-12T20:17:46.928Z,5.93
2019-01-12T20:20:16.279Z,5.20
2019-01-12T20:22:45.260Z,5.20
2019-01-12T20:25:15.903Z,5.37
2019-01-12T20:27:44.886Z,4.87
2019-01-12T20:30:18.354Z,5.20
2019-01-12T20:33:06.950Z,4.93
2019-01-12T20:35:37.468Z,4.00
2019-01-12T20:38:07.977Z,4.20
2019-01-12T20:40:38.503Z,4.40
2019-01-12T20:43:17.834Z,5.13
2019-01-12T20:45:54.098Z,4.43
2019-01-12T20:48:24.615Z,4.50
2019-01-12T20:50:55.325Z,4.40
2019-01-12T20:53:25.821Z,4.50
2019-01-12T20:55:59.143Z,3.73
2019-01-12T20:58:35.530Z,4.33
2019-01-12T21:01:11.931Z,3.57
2019-01-12T21:03:48.527Z,4.00
2019-01-12T21:06:35.608Z,4.30
2019-01-12T21:09:15.139Z,4.03
2019-01-12T21:11:45.648Z,4.33
2019-01-12T21:14:21.886Z,3.80
2019-01-12T21:16:50.945Z,3.70
2019-01-12T21:19:19.935Z,3.60
2019-01-12T21:21:48.906Z,4.07
2019-01-12T21:24:17.874Z,3.93
2019-01-12T21:26:46.850Z,4.20
2019-01-12T21:29:15.823Z,5.30
2019-01-12T21:31:44.827Z,4.83
2019-01-12T21:34:13.818Z,6.17
2019-01-12T21:36:42.799Z,7.40
2019-01-12T21:39:11.797Z,6.20
2019-01-12T21:41:40.779Z,5.30
2019-01-12T21:44:09.752Z,6.83
2019-01-12T21:46:39.303Z,5.50
2019-01-12T21:49:08.375Z,5.70
2019-01-12T21:51:38.057Z,4.57
2019-01-12T21:54:07.175Z,5.57
2019-01-12T21:56:36.151Z,5.30
2019-01-12T21:59:05.123Z,5.70
2019-01-12T22:01:36.355Z,5.47
2019-01-12T22:04:05.533Z,4.67
2019-01-12T22:06:34.865Z,4.10
2019-01-12T22:09:05.450Z,3.73
2019-01-12T22:11:34.515Z,2.47
2019-01-12T22:14:03.650Z,1.83
2019-01-12T22:16:33.594Z,1.17
2019-01-12T22:19:02.583Z,0.90
2019-01-12T22:21:31.547Z,0.70
2019-01-12T22:24:00.532Z,0.83
2019-01-12T22:26:29.506Z,0.90
2019-01-12T22:28:58.474Z,0.70
2019-01-12T22:31:28.398Z,0.60
2019-01-12T22:33:57.366Z,0.67
2019-01-12T22:36:26.338Z,0.83
2019-01-12T22:38:55.314Z,0.70
2019-01-12T22:41:24.286Z,1.00
2019-01-12T22:43:53.286Z,0.97
2019-01-12T22:46:22.254Z,0.90
2019-01-12T22:48:51.276Z,1.10
2019-01-12T22:51:22.541Z,1.00
2019-01-12T22:53:51.598Z,1.20
2019-01-12T22:56:20.580Z,1.37
2019-01-12T22:58:49.559Z,1.50
2019-01-12T23:01:20.090Z,1.40
2019-01-12T23:03:49.106Z,1.43
2019-01-12T23:06:18.074Z,1.67
2019-01-12T23:08:47.046Z,1.60
2019-01-12T23:11:16.111Z,1.80
2019-01-12T23:13:45.111Z,1.90
2019-01-12T23:16:14.263Z,2.30
2019-01-12T23:18:43.306Z,2.00
2019-01-12T23:21:12.350Z,2.13
2019-01-12T23:23:41.350Z,1.70
2019-01-12T23:26:10.328Z,1.80
2019-01-12T23:28:39.286Z,2.13
2019-01-12T23:31:08.486Z,2.00
2019-01-12T23:33:37.455Z,2.00
2019-01-12T23:36:06.445Z,2.13
2019-01-12T23:38:35.418Z,2.30
2019-01-12T23:41:04.454Z,2.10
2019-01-12T23:43:33.431Z,1.90
2019-01-12T23:46:02.398Z,2.33
2019-01-12T23:48:31.372Z,1.93
2019-01-12T23:51:00.783Z,2.60
2019-01-12T23:53:29.752Z,2.23
2019-01-12T23:55:58.722Z,1.97
2019-01-12T23:58:27.769Z,1.77
